| Date | Time | Temp. (oF) | Dew Point (oF) | Rel. Hum. (%) | Press. (in.) | Wind Dir. | Wind Speed (mph) | Hourly Rainfall (in.) |
|
|---|---|---|---|---|---|---|---|---|---|
| 1 | 07/08 | 00:00 | 62 | 53 | 73 | 30.31 | SSE | 1 | 0.00 |
| 2 | 07/07 | 23:00 | 65 | 52 | 63 | 30.30 | E | 0 | 0.00 |
| 3 | 07/07 | 22:00 | 68 | 50 | 54 | 30.29 | E | 0 | 0.00 |
| 4 | 07/07 | 21:00 | 71 | 49 | 47 | 30.27 | E | 3 | 0.00 |
| 5 | 07/07 | 20:00 | 76 | 49 | 40 | 30.25 | E | 3 | 0.00 |
| 6 | 07/07 | 19:00 | 80 | 50 | 36 | 30.25 | NE | 2 | 0.00 |
| 7 | 07/07 | 18:00 | 81 | 49 | 34 | 30.25 | NNW | 12 | 0.00 |
| 8 | 07/07 | 17:00 | 81 | 51 | 36 | 30.25 | NNE | 5 | 0.00 |
| 9 | 07/07 | 16:00 | 81 | 50 | 35 | 30.29 | ESE | 6 | 0.00 |
| 10 | 07/07 | 15:00 | 80 | 50 | 36 | 30.31 | NNE | 7 | 0.00 |
| 11 | 07/07 | 14:00 | 78 | 50 | 39 | 30.32 | NNW | 6 | 0.00 |
| 12 | 07/07 | 13:00 | 76 | 49 | 40 | 30.33 | NNE | 8 | 0.00 |
| 13 | 07/07 | 12:00 | 75 | 48 | 40 | 30.34 | NNE | 6 | 0.00 |
| 14 | 07/07 | 11:00 | 72 | 49 | 46 | 30.34 | NE | 4 | 0.00 |
| 15 | 07/07 | 10:00 | 70 | 50 | 50 | 30.34 | N | 5 | 0.00 |
| 16 | 07/07 | 09:00 | 65 | 50 | 59 | 30.34 | NE | 4 | 0.00 |
| 17 | 07/07 | 08:00 | 63 | 51 | 65 | 30.34 | NNE | 6 | 0.00 |
| 18 | 07/07 | 07:00 | 60 | 49 | 69 | 30.32 | NNE | 7 | 0.00 |
| 19 | 07/07 | 06:00 | 60 | 49 | 69 | 30.29 | NW | 4 | 0.00 |
| 20 | 07/07 | 05:00 | 60 | 50 | 70 | 30.27 | NNW | 3 | 0.00 |
| 21 | 07/07 | 04:00 | 62 | 50 | 67 | 30.25 | WNW | 2 | 0.00 |
| 22 | 07/07 | 03:00 | 64 | 51 | 64 | 30.24 | NNW | 3 | 0.00 |
| 23 | 07/07 | 02:00 | 66 | 51 | 60 | 30.23 | NW | 5 | 0.00 |
| 24 | 07/07 | 01:00 | 68 | 53 | 60 | 30.21 | NW | 4 | 0.00 |